Time;durP1;ratioP1;P1;durP2;ratioP2;P2;SDS_P1;SDS_P2;PMS_P1;PMS_P2;Temp;Humidity;BMP_temperature;BMP_pressure;BME280_temperature;BME280_humidity;BME280_pressure;Samples;Min_cycle;Max_cycle;Signal;HPM_P1;HPM_P2
2022/03/08 00:01:50;;;;;;;4.97;3.30;;;;;;;;;;4898295;29;20232;-76
2022/03/08 00:04:15;;;;;;;3.60;2.90;;;;;;;;;;4886455;29;20236;-75
2022/03/08 00:06:46;;;;;;;4.00;3.50;;;;;;;;;;4875343;29;20614;-75
2022/03/08 00:09:14;;;;;;;4.50;2.87;;;;;;;;;;4901012;29;20244;-76
2022/03/08 00:11:40;;;;;;;3.57;2.70;;;;;;;;;;4913902;29;20597;-75
2022/03/08 00:14:09;;;;;;;6.70;3.10;;;;;;;;;;4914168;29;20235;-75
2022/03/08 00:16:34;;;;;;;3.80;3.00;;;;;;;;;;4884054;29;20283;-75
2022/03/08 00:19:03;;;;;;;3.77;2.87;;;;;;;;;;4858040;29;20256;-75
2022/03/08 00:21:31;;;;;;;4.73;3.17;;;;;;;;;;4897446;29;20256;-75
2022/03/08 00:23:57;;;;;;;5.23;3.17;;;;;;;;;;4899067;29;20259;-73
2022/03/08 00:26:25;;;;;;;3.60;2.87;;;;;;;;;;4904049;29;20231;-74
2022/03/08 00:28:51;;;;;;;4.27;2.77;;;;;;;;;;4898589;29;20659;-74
2022/03/08 00:31:16;;;;;;;3.30;2.70;;;;;;;;;;4896947;29;20287;-74
2022/03/08 00:33:42;;;;;;;3.57;2.70;;;;;;;;;;4898355;29;20318;-74
2022/03/08 00:36:07;;;;;;;2.80;2.40;;;;;;;;;;4897003;29;20227;-75
2022/03/08 00:38:35;;;;;;;3.20;2.70;;;;;;;;;;4894851;29;20583;-75
2022/03/08 00:41:01;;;;;;;3.57;2.70;;;;;;;;;;4881961;29;20231;-74
2022/03/08 00:43:26;;;;;;;2.83;2.60;;;;;;;;;;4901501;29;20231;-75
2022/03/08 00:45:54;;;;;;;3.73;2.60;;;;;;;;;;4897616;29;20655;-74
2022/03/08 00:48:20;;;;;;;2.90;2.60;;;;;;;;;;4914177;29;20216;-74
2022/03/08 00:50:48;;;;;;;5.07;2.70;;;;;;;;;;4897465;29;20243;-76
2022/03/08 00:53:13;;;;;;;2.80;2.40;;;;;;;;;;4912706;29;20264;-75
2022/03/08 00:55:41;;;;;;;5.00;2.70;;;;;;;;;;4896776;29;20644;-75
2022/03/08 00:58:07;;;;;;;3.83;2.40;;;;;;;;;;4856950;29;20846;-77
2022/03/08 01:00:35;;;;;;;3.47;2.43;;;;;;;;;;4897786;29;20232;-75
2022/03/08 01:03:01;;;;;;;3.33;2.60;;;;;;;;;;4897128;29;20228;-74
2022/03/08 01:05:26;;;;;;;3.17;2.70;;;;;;;;;;4888294;29;20375;-74
2022/03/08 01:07:54;;;;;;;4.10;2.77;;;;;;;;;;4898116;29;20322;-73
2022/03/08 01:10:23;;;;;;;4.90;2.90;;;;;;;;;;4884614;29;20224;-75
2022/03/08 01:12:49;;;;;;;3.20;2.50;;;;;;;;;;4899695;29;20228;-76
2022/03/08 01:15:14;;;;;;;3.73;2.77;;;;;;;;;;4925403;29;20242;-74
2022/03/08 01:17:41;;;;;;;2.83;2.50;;;;;;;;;;4922820;29;20280;-73
2022/03/08 01:20:11;;;;;;;3.60;2.57;;;;;;;;;;4909650;29;20216;-73
2022/03/08 01:22:37;;;;;;;3.20;2.83;;;;;;;;;;4923430;29;20228;-74
2022/03/08 01:25:07;;;;;;;3.80;2.90;;;;;;;;;;4892900;29;20333;-73
2022/03/08 01:27:33;;;;;;;4.50;2.90;;;;;;;;;;4866450;29;20262;-74
2022/03/08 01:30:06;;;;;;;4.50;2.83;;;;;;;;;;4920066;29;20395;-74
2022/03/08 01:32:32;;;;;;;4.00;2.60;;;;;;;;;;4904189;29;20235;-74
2022/03/08 01:35:00;;;;;;;4.07;2.43;;;;;;;;;;4905690;29;20263;-74
2022/03/08 01:37:27;;;;;;;4.37;2.63;;;;;;;;;;4897346;29;20263;-74
2022/03/08 01:39:53;;;;;;;2.77;2.53;;;;;;;;;;4915344;29;20241;-73
2022/03/08 01:42:21;;;;;;;3.57;2.53;;;;;;;;;;4881480;29;20683;-74
2022/03/08 01:44:49;;;;;;;3.67;2.63;;;;;;;;;;4898556;29;20240;-74
2022/03/08 01:47:23;;;;;;;3.90;2.60;;;;;;;;;;4896488;29;20224;-74
2022/03/08 01:49:51;;;;;;;4.60;2.70;;;;;;;;;;4862037;29;20236;-74
2022/03/08 01:52:19;;;;;;;2.77;2.43;;;;;;;;;;4894881;29;20673;-75
2022/03/08 01:54:50;;;;;;;3.00;2.30;;;;;;;;;;4886098;29;20306;-74
2022/03/08 01:57:23;;;;;;;3.67;2.70;;;;;;;;;;4898699;29;20228;-75
2022/03/08 01:59:49;;;;;;;3.90;2.80;;;;;;;;;;4864634;29;20248;-74
2022/03/08 02:02:20;;;;;;;5.33;2.47;;;;;;;;;;4895781;29;20223;-74
2022/03/08 02:04:47;;;;;;;3.97;2.80;;;;;;;;;;4916695;29;20239;-74
2022/03/08 02:07:15;;;;;;;3.90;2.50;;;;;;;;;;4872604;29;20224;-76
2022/03/08 02:09:42;;;;;;;4.87;2.47;;;;;;;;;;4872666;29;20224;-75
2022/03/08 02:12:09;;;;;;;4.17;2.50;;;;;;;;;;4884130;29;20232;-75
2022/03/08 02:14:37;;;;;;;4.53;2.70;;;;;;;;;;4900352;29;20228;-75
2022/03/08 02:17:02;;;;;;;3.67;2.60;;;;;;;;;;4899606;29;20236;-74
2022/03/08 02:19:33;;;;;;;2.73;2.40;;;;;;;;;;4899603;29;20598;-75
2022/03/08 02:21:58;;;;;;;3.50;2.50;;;;;;;;;;4896040;29;20224;-74
2022/03/08 02:24:24;;;;;;;3.03;2.40;;;;;;;;;;4878578;29;20587;-75
2022/03/08 02:27:00;;;;;;;2.60;2.40;;;;;;;;;;4899840;29;20228;-75
2022/03/08 02:29:25;;;;;;;3.97;2.70;;;;;;;;;;4898882;29;20310;-75
2022/03/08 02:31:54;;;;;;;2.50;2.30;;;;;;;;;;4900067;29;20314;-75
2022/03/08 02:34:20;;;;;;;3.70;2.60;;;;;;;;;;4897551;29;20260;-74
2022/03/08 02:37:04;;;;;;;3.43;2.80;;;;;;;;;;4884970;29;20295;-74
2022/03/08 02:39:32;;;;;;;2.93;2.63;;;;;;;;;;4899512;29;20311;-73
2022/03/08 02:41:58;;;;;;;3.07;2.67;;;;;;;;;;4915269;29;20228;-75
2022/03/08 02:44:26;;;;;;;4.33;2.60;;;;;;;;;;4914529;29;20315;-75
2022/03/08 02:46:54;;;;;;;3.40;2.43;;;;;;;;;;4903224;29;20224;-75
2022/03/08 02:49:22;;;;;;;3.60;2.63;;;;;;;;;;4883434;29;20224;-76
2022/03/08 02:51:50;;;;;;;2.97;2.70;;;;;;;;;;4875801;29;20223;-76
2022/03/08 02:54:15;;;;;;;3.10;2.60;;;;;;;;;;4899308;29;20311;-73
2022/03/08 02:56:41;;;;;;;3.03;2.70;;;;;;;;;;4916471;29;20244;-75
2022/03/08 02:59:06;;;;;;;4.40;2.70;;;;;;;;;;4898313;29;20371;-75
2022/03/08 03:01:34;;;;;;;2.80;2.50;;;;;;;;;;4914316;29;20228;-74
2022/03/08 03:04:05;;;;;;;4.53;2.50;;;;;;;;;;4899016;29;20241;-76
2022/03/08 03:06:35;;;;;;;5.47;3.10;;;;;;;;;;4898198;29;20224;-76
2022/03/08 03:09:03;;;;;;;3.30;3.00;;;;;;;;;;4876439;29;20292;-75
2022/03/08 03:11:29;;;;;;;2.93;2.50;;;;;;;;;;4898523;29;20235;-74
2022/03/08 03:14:02;;;;;;;4.07;2.70;;;;;;;;;;4914306;29;20372;-74
2022/03/08 03:16:33;;;;;;;4.27;2.53;;;;;;;;;;4888282;29;20236;-74
2022/03/08 03:19:01;;;;;;;3.67;2.90;;;;;;;;;;4880261;29;20231;-74
2022/03/08 03:21:27;;;;;;;4.53;3.10;;;;;;;;;;4910931;29;20228;-76
2022/03/08 03:23:53;;;;;;;3.30;2.80;;;;;;;;;;4894809;29;20236;-74
2022/03/08 03:26:20;;;;;;;3.57;2.60;;;;;;;;;;4892961;29;20216;-75
2022/03/08 03:28:47;;;;;;;4.00;2.60;;;;;;;;;;4913857;29;20231;-75
2022/03/08 03:31:15;;;;;;;4.43;2.77;;;;;;;;;;4901017;29;20228;-75
2022/03/08 03:33:40;;;;;;;4.67;2.70;;;;;;;;;;4916141;29;20234;-74
2022/03/08 03:36:13;;;;;;;4.87;2.93;;;;;;;;;;4914338;29;20315;-76
2022/03/08 03:38:38;;;;;;;5.20;2.80;;;;;;;;;;4914914;29;20239;-74
2022/03/08 03:41:04;;;;;;;6.20;3.00;;;;;;;;;;4899997;29;20236;-76
2022/03/08 03:43:32;;;;;;;3.73;3.00;;;;;;;;;;4884494;29;20940;-75
2022/03/08 03:45:57;;;;;;;3.40;3.00;;;;;;;;;;4898342;29;20724;-75
2022/03/08 03:48:25;;;;;;;4.10;2.90;;;;;;;;;;4885120;29;20222;-75
2022/03/08 03:50:55;;;;;;;4.87;3.17;;;;;;;;;;4899603;29;20224;-74
2022/03/08 03:53:20;;;;;;;4.73;3.03;;;;;;;;;;4901653;29;20228;-74
2022/03/08 03:55:46;;;;;;;4.07;3.30;;;;;;;;;;4881557;29;20246;-76
2022/03/08 03:58:16;;;;;;;4.47;3.30;;;;;;;;;;4861894;29;20244;-75
2022/03/08 04:00:42;;;;;;;5.13;3.60;;;;;;;;;;4897949;29;20604;-75
2022/03/08 04:03:07;;;;;;;7.20;3.60;;;;;;;;;;4906501;29;20219;-75
2022/03/08 04:05:33;;;;;;;9.03;5.07;;;;;;;;;;4898146;29;20240;-74
2022/03/08 04:07:59;;;;;;;4.77;3.23;;;;;;;;;;4898528;29;20240;-75
2022/03/08 04:10:25;;;;;;;4.97;3.47;;;;;;;;;;4874832;29;20224;-74
2022/03/08 04:12:53;;;;;;;5.47;3.83;;;;;;;;;;4882621;29;20235;-75
2022/03/08 04:15:20;;;;;;;4.30;3.50;;;;;;;;;;4912598;29;20224;-75
2022/03/08 04:17:46;;;;;;;5.83;3.47;;;;;;;;;;4859348;29;20607;-75
2022/03/08 04:20:14;;;;;;;5.30;3.40;;;;;;;;;;4897914;29;20279;-75
2022/03/08 04:22:42;;;;;;;4.07;3.20;;;;;;;;;;4908706;29;20739;-75
2022/03/08 04:25:14;;;;;;;5.43;3.40;;;;;;;;;;4899541;29;20236;-75
2022/03/08 04:27:44;;;;;;;4.83;3.50;;;;;;;;;;4914173;29;20247;-74
2022/03/08 04:30:10;;;;;;;5.50;3.73;;;;;;;;;;4911983;29;20250;-75
2022/03/08 04:32:41;;;;;;;4.57;3.30;;;;;;;;;;4903181;29;20303;-74
2022/03/08 04:35:09;;;;;;;4.17;3.13;;;;;;;;;;4903664;29;20237;-74
2022/03/08 04:37:37;;;;;;;5.07;3.70;;;;;;;;;;4919624;29;20235;-75
2022/03/08 04:40:09;;;;;;;5.53;3.37;;;;;;;;;;4895426;29;20604;-75
2022/03/08 04:42:34;;;;;;;6.30;3.60;;;;;;;;;;4856979;29;20244;-74
2022/03/08 04:45:00;;;;;;;4.20;3.43;;;;;;;;;;4884564;29;20228;-76
2022/03/08 04:47:26;;;;;;;5.63;3.70;;;;;;;;;;4888339;29;20236;-77
2022/03/08 04:49:51;;;;;;;4.83;3.13;;;;;;;;;;4888365;29;20700;-74
2022/03/08 04:52:16;;;;;;;6.90;3.47;;;;;;;;;;4859148;29;20225;-75
2022/03/08 04:54:45;;;;;;;4.17;3.70;;;;;;;;;;4901746;29;20220;-75
2022/03/08 04:57:12;;;;;;;6.50;3.73;;;;;;;;;;4901792;29;20255;-74
2022/03/08 04:59:40;;;;;;;5.30;3.17;;;;;;;;;;4902502;29;20351;-74
2022/03/08 05:02:08;;;;;;;4.40;3.57;;;;;;;;;;4896084;29;20227;-74
2022/03/08 05:04:33;;;;;;;3.90;3.33;;;;;;;;;;4898303;29;20255;-75
2022/03/08 05:07:04;;;;;;;7.67;5.17;;;;;;;;;;4896484;29;20328;-75
2022/03/08 05:09:31;;;;;;;8.17;6.73;;;;;;;;;;4899323;29;20248;-76
2022/03/08 05:11:59;;;;;;;8.47;6.20;;;;;;;;;;4896868;29;20254;-74
2022/03/08 05:14:25;;;;;;;4.37;3.80;;;;;;;;;;4898960;29;20236;-74
2022/03/08 05:16:52;;;;;;;5.23;3.93;;;;;;;;;;4915190;29;20228;-74
2022/03/08 05:19:17;;;;;;;4.70;3.93;;;;;;;;;;4913734;29;20291;-74
2022/03/08 05:21:45;;;;;;;7.17;3.97;;;;;;;;;;4896418;29;20224;-75
2022/03/08 05:24:13;;;;;;;5.30;3.67;;;;;;;;;;4897075;29;20232;-74
2022/03/08 05:26:39;;;;;;;3.97;3.57;;;;;;;;;;4893691;29;20236;-74
2022/03/08 05:29:06;;;;;;;5.17;3.73;;;;;;;;;;4862631;29;20735;-74
2022/03/08 05:31:31;;;;;;;4.63;3.63;;;;;;;;;;4896161;29;20323;-74
2022/03/08 05:33:57;;;;;;;6.87;3.80;;;;;;;;;;4900310;29;20379;-73
2022/03/08 05:36:25;;;;;;;5.07;3.50;;;;;;;;;;4896420;29;20235;-74
2022/03/08 05:38:51;;;;;;;4.83;3.90;;;;;;;;;;4915106;29;20320;-76
2022/03/08 05:41:19;;;;;;;4.77;3.77;;;;;;;;;;4913496;29;20256;-75
2022/03/08 05:43:45;;;;;;;7.03;3.60;;;;;;;;;;4918062;29;20235;-74
2022/03/08 05:46:13;;;;;;;4.83;3.70;;;;;;;;;;4885660;29;20239;-75
2022/03/08 05:48:39;;;;;;;8.03;4.13;;;;;;;;;;4880181;29;20228;-75
2022/03/08 05:51:04;;;;;;;4.60;3.70;;;;;;;;;;4917135;29;20327;-74
2022/03/08 05:53:30;;;;;;;4.27;3.87;;;;;;;;;;4901414;29;20232;-74
2022/03/08 05:55:55;;;;;;;3.90;3.17;;;;;;;;;;4901512;29;20316;-74
2022/03/08 05:58:21;;;;;;;4.00;3.23;;;;;;;;;;4900611;29;20219;-75
2022/03/08 06:00:51;;;;;;;4.43;3.90;;;;;;;;;;4900375;29;20224;-74
2022/03/08 06:03:17;;;;;;;4.40;3.53;;;;;;;;;;4899970;29;20254;-75
2022/03/08 06:05:45;;;;;;;4.33;3.57;;;;;;;;;;4900620;29;20712;-75
2022/03/08 06:08:10;;;;;;;4.33;3.70;;;;;;;;;;4915309;29;20232;-74
2022/03/08 06:10:39;;;;;;;4.03;3.47;;;;;;;;;;4916203;29;20327;-75
2022/03/08 06:13:07;;;;;;;6.73;4.13;;;;;;;;;;4895909;29;20247;-74
2022/03/08 06:15:35;;;;;;;4.87;3.33;;;;;;;;;;4899772;29;20727;-74
2022/03/08 06:18:01;;;;;;;4.90;3.87;;;;;;;;;;4881849;29;20221;-77
2022/03/08 06:20:29;;;;;;;5.03;3.73;;;;;;;;;;4884864;29;20709;-74
2022/03/08 06:22:54;;;;;;;5.80;3.90;;;;;;;;;;4881327;29;20226;-73
2022/03/08 06:25:29;;;;;;;4.70;3.97;;;;;;;;;;4907341;29;20680;-75
2022/03/08 06:28:23;;;;;;;6.03;3.60;;;;;;;;;;4893484;29;20863;-73
2022/03/08 06:30:51;;;;;;;5.80;3.83;;;;;;;;;;4901339;29;20604;-74
2022/03/08 06:33:17;;;;;;;7.57;3.63;;;;;;;;;;4884281;29;20227;-75
2022/03/08 06:35:45;;;;;;;5.53;3.93;;;;;;;;;;4906681;29;20331;-75
2022/03/08 06:38:13;;;;;;;5.23;4.00;;;;;;;;;;4873700;29;20215;-75
2022/03/08 06:40:41;;;;;;;6.67;3.30;;;;;;;;;;4917664;29;20228;-75
2022/03/08 06:43:08;;;;;;;6.00;4.27;;;;;;;;;;4883431;29;20224;-75
2022/03/08 06:45:34;;;;;;;4.37;3.60;;;;;;;;;;4899964;29;20256;-76
2022/03/08 06:48:00;;;;;;;8.07;4.33;;;;;;;;;;4899345;29;20633;-73
2022/03/08 06:50:27;;;;;;;6.27;4.30;;;;;;;;;;4901347;29;20220;-74
2022/03/08 06:52:53;;;;;;;5.90;4.10;;;;;;;;;;4901945;29;20231;-74
2022/03/08 06:55:18;;;;;;;5.73;3.67;;;;;;;;;;4886189;29;20283;-75
2022/03/08 06:57:44;;;;;;;5.57;3.80;;;;;;;;;;4889962;29;20224;-74
2022/03/08 07:00:15;;;;;;;5.63;3.70;;;;;;;;;;4902297;29;20224;-75
2022/03/08 07:02:40;;;;;;;5.10;3.47;;;;;;;;;;4866684;29;20232;-77
2022/03/08 07:05:09;;;;;;;4.30;3.53;;;;;;;;;;4884273;29;20232;-74
2022/03/08 07:07:38;;;;;;;5.97;3.83;;;;;;;;;;4899997;29;20247;-74
2022/03/08 07:10:08;;;;;;;3.63;3.17;;;;;;;;;;4900008;29;20228;-73
2022/03/08 07:12:38;;;;;;;7.53;3.83;;;;;;;;;;4900011;29;20228;-74
2022/03/08 07:15:07;;;;;;;5.40;3.73;;;;;;;;;;4900014;29;20231;-74
2022/03/08 07:17:36;;;;;;;4.63;3.90;;;;;;;;;;4914447;29;20240;-74
2022/03/08 07:20:02;;;;;;;5.33;3.60;;;;;;;;;;4904214;29;20222;-75
2022/03/08 07:22:30;;;;;;;4.10;3.60;;;;;;;;;;4895896;29;20235;-75
2022/03/08 07:24:59;;;;;;;4.13;3.60;;;;;;;;;;4875769;29;20314;-75
2022/03/08 07:27:24;;;;;;;5.03;3.80;;;;;;;;;;4898330;29;20239;-73
2022/03/08 07:29:50;;;;;;;5.97;3.70;;;;;;;;;;4901214;29;20244;-74
2022/03/08 07:32:15;;;;;;;5.93;3.80;;;;;;;;;;4898670;29;20307;-75
2022/03/08 07:34:43;;;;;;;5.73;3.60;;;;;;;;;;4896889;29;20267;-75
2022/03/08 07:37:09;;;;;;;5.23;3.43;;;;;;;;;;4899574;29;20228;-75
2022/03/08 07:39:35;;;;;;;5.77;3.47;;;;;;;;;;4882954;29;20231;-74
2022/03/08 07:42:00;;;;;;;4.80;3.40;;;;;;;;;;4914611;29;20321;-73
2022/03/08 07:44:28;;;;;;;4.47;3.07;;;;;;;;;;4912047;29;20239;-73
2022/03/08 07:46:55;;;;;;;4.03;3.07;;;;;;;;;;4901853;29;20240;-73
2022/03/08 07:49:21;;;;;;;4.53;3.00;;;;;;;;;;4866882;29;20223;-73
2022/03/08 07:51:49;;;;;;;4.73;2.77;;;;;;;;;;4898567;29;20232;-74
2022/03/08 07:54:15;;;;;;;4.33;2.90;;;;;;;;;;4896083;29;20236;-74
2022/03/08 07:56:40;;;;;;;3.83;2.73;;;;;;;;;;4916369;29;20256;-73
2022/03/08 07:59:11;;;;;;;4.37;2.90;;;;;;;;;;4898563;29;20316;-74
2022/03/08 08:01:36;;;;;;;3.30;2.80;;;;;;;;;;4897933;29;20232;-74
2022/03/08 08:04:02;;;;;;;4.10;2.77;;;;;;;;;;4915272;29;20228;-73
2022/03/08 08:06:28;;;;;;;3.70;2.73;;;;;;;;;;4898908;29;20234;-74
2022/03/08 08:08:53;;;;;;;3.50;2.87;;;;;;;;;;4915660;29;20669;-74
2022/03/08 08:11:19;;;;;;;3.67;2.53;;;;;;;;;;4883901;29;20307;-73
2022/03/08 08:13:50;;;;;;;3.37;3.03;;;;;;;;;;4915136;29;20612;-74
2022/03/08 08:16:18;;;;;;;4.97;2.40;;;;;;;;;;4900317;29;20727;-74
2022/03/08 08:18:44;;;;;;;2.97;2.20;;;;;;;;;;4898085;29;20224;-73
2022/03/08 08:21:12;;;;;;;3.10;2.80;;;;;;;;;;4899890;29;20270;-75
2022/03/08 08:23:38;;;;;;;4.25;2.95;;;;;;;;;;4912318;29;20438;-75
2022/03/08 08:26:06;;;;;;;2.73;2.40;;;;;;;;;;4899832;29;20314;-75
2022/03/08 08:28:32;;;;;;;3.73;2.13;;;;;;;;;;4898264;29;20592;-76
2022/03/08 08:30:59;;;;;;;3.37;2.40;;;;;;;;;;4899086;29;20271;-73
2022/03/08 08:33:25;;;;;;;3.83;2.60;;;;;;;;;;4881111;29;20266;-73
2022/03/08 08:35:50;;;;;;;3.77;2.73;;;;;;;;;;4892360;29;20607;-74
2022/03/08 08:38:16;;;;;;;3.23;2.50;;;;;;;;;;4876861;29;20582;-75
2022/03/08 08:40:44;;;;;;;2.87;2.67;;;;;;;;;;4916538;29;20232;-73
2022/03/08 08:43:10;;;;;;;4.50;2.40;;;;;;;;;;4899909;29;20247;-75
2022/03/08 08:45:35;;;;;;;4.03;2.67;;;;;;;;;;4883883;29;20232;-75
2022/03/08 08:48:04;;;;;;;3.40;2.40;;;;;;;;;;4898967;29;20252;-74
2022/03/08 08:50:30;;;;;;;2.77;2.33;;;;;;;;;;4897895;29;20236;-75
2022/03/08 08:52:55;;;;;;;2.93;2.50;;;;;;;;;;4913219;29;20228;-76
2022/03/08 08:55:22;;;;;;;3.50;2.40;;;;;;;;;;4874938;29;20263;-75
2022/03/08 08:57:48;;;;;;;3.00;2.50;;;;;;;;;;4897851;29;20228;-76
2022/03/08 09:00:16;;;;;;;2.87;2.53;;;;;;;;;;4881847;29;20232;-76
2022/03/08 09:02:43;;;;;;;6.50;2.60;;;;;;;;;;4899036;29;20224;-77
2022/03/08 09:05:12;;;;;;;3.33;2.67;;;;;;;;;;4897575;29;20275;-76
2022/03/08 09:07:40;;;;;;;3.73;2.63;;;;;;;;;;4883216;29;20377;-76
2022/03/08 09:10:08;;;;;;;3.03;2.67;;;;;;;;;;4894864;29;20223;-76
2022/03/08 09:12:35;;;;;;;4.03;2.90;;;;;;;;;;4920734;29;20239;-76
2022/03/08 09:15:02;;;;;;;3.33;2.70;;;;;;;;;;4899103;29;20228;-76
2022/03/08 09:17:30;;;;;;;3.87;2.63;;;;;;;;;;4912314;29;20282;-74
2022/03/08 09:19:55;;;;;;;4.10;2.60;;;;;;;;;;4903938;29;20234;-76
2022/03/08 09:22:21;;;;;;;4.33;3.00;;;;;;;;;;4904350;29;20692;-75
2022/03/08 09:24:49;;;;;;;2.83;2.43;;;;;;;;;;4903581;29;20236;-75
2022/03/08 09:27:16;;;;;;;3.97;2.70;;;;;;;;;;4903761;29;20224;-74
2022/03/08 09:29:41;;;;;;;5.10;2.80;;;;;;;;;;4880889;29;20746;-75
2022/03/08 09:32:07;;;;;;;5.37;2.60;;;;;;;;;;4903316;29;20219;-76
2022/03/08 09:34:34;;;;;;;4.73;2.80;;;;;;;;;;4887570;29;20215;-76
2022/03/08 09:36:59;;;;;;;4.00;2.90;;;;;;;;;;4917809;29;20739;-74
2022/03/08 09:39:25;;;;;;;3.10;2.80;;;;;;;;;;4921029;29;20224;-76
2022/03/08 09:41:53;;;;;;;4.80;2.90;;;;;;;;;;4919841;29;20650;-76
2022/03/08 09:44:19;;;;;;;3.33;2.63;;;;;;;;;;4903331;29;20243;-75
2022/03/08 09:46:49;;;;;;;3.90;2.47;;;;;;;;;;4902619;29;20228;-76
2022/03/08 09:49:14;;;;;;;2.87;2.40;;;;;;;;;;4902581;29;20224;-74
2022/03/08 09:51:42;;;;;;;3.07;2.33;;;;;;;;;;4900595;29;20220;-76
2022/03/08 09:54:08;;;;;;;3.17;2.10;;;;;;;;;;4887469;29;20883;-75
2022/03/08 09:56:36;;;;;;;2.47;2.07;;;;;;;;;;4902767;29;20320;-76
2022/03/08 09:59:02;;;;;;;3.37;2.47;;;;;;;;;;4868467;29;20290;-75
2022/03/08 10:01:32;;;;;;;3.17;2.13;;;;;;;;;;4903019;29;20232;-75
2022/03/08 10:04:00;;;;;;;2.50;1.83;;;;;;;;;;4902867;29;20678;-75
2022/03/08 10:06:40;;;;;;;2.13;1.90;;;;;;;;;;4902510;29;20228;-75
2022/03/08 10:09:13;;;;;;;3.20;2.00;;;;;;;;;;4902912;29;20224;-75
2022/03/08 10:11:41;;;;;;;3.83;2.27;;;;;;;;;;4915196;29;20228;-75
2022/03/08 10:14:11;;;;;;;2.77;2.07;;;;;;;;;;4902278;29;20232;-75
2022/03/08 10:16:49;;;;;;;3.40;1.80;;;;;;;;;;4902847;29;20252;-76
2022/03/08 10:19:17;;;;;;;2.23;1.70;;;;;;;;;;4902588;29;20239;-75
2022/03/08 10:21:47;;;;;;;2.53;1.80;;;;;;;;;;4880523;29;20224;-75
2022/03/08 10:24:25;;;;;;;2.00;1.50;;;;;;;;;;4901737;29;20770;-75
2022/03/08 10:26:56;;;;;;;3.43;1.87;;;;;;;;;;4884394;29;20612;-74
2022/03/08 10:29:29;;;;;;;1.87;1.77;;;;;;;;;;4878663;29;20228;-76
2022/03/08 10:32:10;;;;;;;1.73;1.63;;;;;;;;;;4886933;29;20924;-75
2022/03/08 10:34:37;;;;;;;2.73;1.70;;;;;;;;;;4904419;29;20618;-75
2022/03/08 10:37:03;;;;;;;2.00;1.80;;;;;;;;;;4878709;29;20227;-75
2022/03/08 10:39:31;;;;;;;3.83;1.90;;;;;;;;;;4903582;29;20232;-75
2022/03/08 10:41:57;;;;;;;3.30;2.10;;;;;;;;;;4899901;29;20707;-75
2022/03/08 10:44:35;;;;;;;2.80;1.97;;;;;;;;;;4899341;29;20232;-77
2022/03/08 10:47:05;;;;;;;3.40;1.93;;;;;;;;;;4897950;29;20267;-76
2022/03/08 10:49:34;;;;;;;2.60;1.93;;;;;;;;;;4866933;29;20232;-75
2022/03/08 10:52:05;;;;;;;2.83;1.90;;;;;;;;;;4898492;29;20235;-76
2022/03/08 10:54:36;;;;;;;2.27;1.90;;;;;;;;;;4915485;29;20239;-76
2022/03/08 10:57:04;;;;;;;2.67;1.83;;;;;;;;;;4914109;29;20247;-75
2022/03/08 10:59:29;;;;;;;2.30;1.77;;;;;;;;;;4879439;29;20667;-75
2022/03/08 11:01:55;;;;;;;2.80;1.97;;;;;;;;;;4900257;29;20225;-74
2022/03/08 11:04:22;;;;;;;3.83;1.93;;;;;;;;;;4918351;29;20644;-74
2022/03/08 11:06:50;;;;;;;2.50;1.87;;;;;;;;;;4915786;29;20228;-75
2022/03/08 11:09:16;;;;;;;2.67;1.80;;;;;;;;;;4880030;29;20220;-77
2022/03/08 11:11:43;;;;;;;3.33;1.90;;;;;;;;;;4900113;29;20239;-75
2022/03/08 11:14:10;;;;;;;2.67;2.10;;;;;;;;;;4902433;29;20220;-76
2022/03/08 11:16:38;;;;;;;1.83;1.73;;;;;;;;;;4900496;29;20468;-74
2022/03/08 11:19:05;;;;;;;2.30;1.97;;;;;;;;;;4902812;29;20224;-75
2022/03/08 11:21:36;;;;;;;2.60;2.00;;;;;;;;;;4861872;29;20697;-76
2022/03/08 11:24:03;;;;;;;2.90;2.00;;;;;;;;;;4903836;29;20686;-76
2022/03/08 11:26:28;;;;;;;2.13;1.80;;;;;;;;;;4900512;29;20267;-76
2022/03/08 11:28:56;;;;;;;2.53;1.90;;;;;;;;;;4878538;29;20228;-76
2022/03/08 11:31:29;;;;;;;3.10;1.83;;;;;;;;;;4897196;29;20226;-76
2022/03/08 11:34:15;;;;;;;3.00;1.90;;;;;;;;;;4901123;29;20232;-75
2022/03/08 11:37:21;;;;;;;2.30;1.73;;;;;;;;;;4898905;29;20259;-76
2022/03/08 11:40:06;;;;;;;1.97;1.50;;;;;;;;;;4852405;29;20225;-75
2022/03/08 11:42:32;;;;;;;2.17;1.43;;;;;;;;;;4911635;29;20244;-75
2022/03/08 11:45:03;;;;;;;1.87;1.27;;;;;;;;;;4899950;29;20232;-76
2022/03/08 11:47:45;;;;;;;1.77;1.30;;;;;;;;;;4898830;29;20582;-76
2022/03/08 11:50:38;;;;;;;2.17;1.17;;;;;;;;;;4899028;29;20249;-77
2022/03/08 11:53:08;;;;;;;2.40;1.60;;;;;;;;;;4911945;29;20235;-78
2022/03/08 11:55:38;;;;;;;1.10;1.00;;;;;;;;;;4914676;29;20258;-76
2022/03/08 11:58:05;;;;;;;2.13;1.20;;;;;;;;;;4898231;29;20224;-76
2022/03/08 12:00:33;;;;;;;1.43;1.20;;;;;;;;;;4898951;29;20248;-75
2022/03/08 12:03:21;;;;;;;1.07;0.90;;;;;;;;;;4913813;29;20319;-75
2022/03/08 12:05:51;;;;;;;1.40;1.17;;;;;;;;;;4897029;29;20244;-76
2022/03/08 12:08:28;;;;;;;2.40;1.40;;;;;;;;;;4915084;29;20231;-75
2022/03/08 12:11:16;;;;;;;1.27;1.00;;;;;;;;;;4913216;29;20244;-76
2022/03/08 12:13:47;;;;;;;1.37;0.97;;;;;;;;;;4916524;29;20286;-76
2022/03/08 12:16:24;;;;;;;0.90;0.80;;;;;;;;;;4898553;29;20235;-77
2022/03/08 12:18:52;;;;;;;0.97;0.97;;;;;;;;;;4900068;29;20223;-76
2022/03/08 12:21:20;;;;;;;1.37;1.00;;;;;;;;;;4918046;29;20260;-76
2022/03/08 12:23:55;;;;;;;1.20;1.00;;;;;;;;;;4916962;29;20603;-74
2022/03/08 12:26:27;;;;;;;1.00;0.90;;;;;;;;;;4892668;29;20243;-75
2022/03/08 12:29:17;;;;;;;0.83;0.70;;;;;;;;;;4883198;29;20731;-76
2022/03/08 12:31:58;;;;;;;1.57;0.97;;;;;;;;;;4910806;29;20310;-75
2022/03/08 12:34:32;;;;;;;1.13;1.00;;;;;;;;;;4912295;29;20235;-74
2022/03/08 12:37:05;;;;;;;1.10;0.77;;;;;;;;;;4916575;29;20256;-76
2022/03/08 12:39:52;;;;;;;0.97;0.87;;;;;;;;;;4897662;29;20231;-75
2022/03/08 12:42:39;;;;;;;1.43;0.67;;;;;;;;;;4887604;29;20700;-76
2022/03/08 12:45:21;;;;;;;0.93;0.77;;;;;;;;;;4897605;29;20311;-76
2022/03/08 12:47:48;;;;;;;1.33;1.00;;;;;;;;;;4896338;29;20271;-75
2022/03/08 12:50:36;;;;;;;0.80;0.80;;;;;;;;;;4900286;29;20216;-73
2022/03/08 12:53:03;;;;;;;0.80;0.80;;;;;;;;;;4880601;29;20228;-76
2022/03/08 12:55:43;;;;;;;0.83;0.77;;;;;;;;;;4884764;29;20614;-75
2022/03/08 12:58:13;;;;;;;1.20;0.93;;;;;;;;;;4895993;29;20235;-75
2022/03/08 13:00:42;;;;;;;2.40;0.87;;;;;;;;;;4882272;29;20231;-74
2022/03/08 13:03:24;;;;;;;1.00;0.90;;;;;;;;;;4881079;29;20255;-75
2022/03/08 13:05:54;;;;;;;1.57;0.90;;;;;;;;;;4899105;29;20724;-75
2022/03/08 13:08:20;;;;;;;0.90;0.90;;;;;;;;;;4895967;29;20221;-75
2022/03/08 13:10:57;;;;;;;1.07;0.90;;;;;;;;;;4901294;29;20298;-75
2022/03/08 13:13:22;;;;;;;2.70;0.90;;;;;;;;;;4897648;29;20262;-76
2022/03/08 13:15:48;;;;;;;1.50;1.17;;;;;;;;;;4900979;29;20219;-76
2022/03/08 13:18:30;;;;;;;1.47;1.10;;;;;;;;;;4864939;29;20223;-75
2022/03/08 13:21:01;;;;;;;1.30;1.20;;;;;;;;;;4903484;29;20233;-76
2022/03/08 13:23:38;;;;;;;2.13;1.20;;;;;;;;;;4897802;29;20258;-75
2022/03/08 13:26:07;;;;;;;2.50;1.23;;;;;;;;;;4884815;29;20715;-75
2022/03/08 13:28:35;;;;;;;1.60;1.20;;;;;;;;;;4881838;29;20286;-76
2022/03/08 13:31:04;;;;;;;1.63;1.07;;;;;;;;;;4897709;29;20231;-77
2022/03/08 13:33:42;;;;;;;1.20;1.10;;;;;;;;;;4872615;29;20321;-76
2022/03/08 13:36:14;;;;;;;2.53;1.20;;;;;;;;;;4896879;29;20610;-77
2022/03/08 13:38:49;;;;;;;1.60;1.00;;;;;;;;;;4897719;29;20291;-75
2022/03/08 13:41:22;;;;;;;1.07;0.90;;;;;;;;;;4898865;29;20419;-74
2022/03/08 13:43:52;;;;;;;1.30;0.90;;;;;;;;;;4898218;29;20224;-75
2022/03/08 13:46:27;;;;;;;1.83;1.10;;;;;;;;;;4897850;29;20224;-75
2022/03/08 13:49:06;;;;;;;1.87;0.90;;;;;;;;;;4898554;29;20231;-75
2022/03/08 13:51:37;;;;;;;0.70;0.70;;;;;;;;;;4891802;29;20221;-75
2022/03/08 13:54:06;;;;;;;0.63;0.63;;;;;;;;;;4914794;29;20238;-75
2022/03/08 13:56:48;;;;;;;0.80;0.80;;;;;;;;;;4933955;29;20301;-77
2022/03/08 13:59:27;;;;;;;0.60;0.60;;;;;;;;;;4929398;29;20239;-74
2022/03/08 14:02:00;;;;;;;0.77;0.77;;;;;;;;;;4908136;29;20272;-75
2022/03/08 14:04:26;;;;;;;0.83;0.80;;;;;;;;;;4917078;29;20228;-75
2022/03/08 14:06:51;;;;;;;0.80;0.80;;;;;;;;;;4925772;29;20389;-75
2022/03/08 14:09:19;;;;;;;1.03;0.80;;;;;;;;;;4928087;29;20221;-74
2022/03/08 14:11:59;;;;;;;0.80;0.67;;;;;;;;;;4930366;29;20212;-76
2022/03/08 14:14:28;;;;;;;0.80;0.70;;;;;;;;;;4914155;29;20236;-75
2022/03/08 14:16:56;;;;;;;1.33;0.67;;;;;;;;;;4914172;29;20240;-76
2022/03/08 14:19:40;;;;;;;0.73;0.50;;;;;;;;;;4917178;29;20694;-76
2022/03/08 14:22:06;;;;;;;0.70;0.70;;;;;;;;;;4882026;29;20237;-75
2022/03/08 14:24:34;;;;;;;0.93;0.60;;;;;;;;;;4901204;29;20394;-75
2022/03/08 14:27:09;;;;;;;1.57;0.70;;;;;;;;;;4902026;29;20232;-76
2022/03/08 14:29:40;;;;;;;0.80;0.80;;;;;;;;;;4865769;29;20263;-74
2022/03/08 14:32:07;;;;;;;0.80;0.80;;;;;;;;;;4903708;29;20325;-77
2022/03/08 14:34:36;;;;;;;0.73;0.70;;;;;;;;;;4901408;29;20224;-75
2022/03/08 14:37:11;;;;;;;2.20;0.80;;;;;;;;;;4885868;29;20223;-74
2022/03/08 14:39:39;;;;;;;2.07;0.67;;;;;;;;;;4916012;29;20754;-74
2022/03/08 14:42:12;;;;;;;1.50;0.60;;;;;;;;;;4915509;29;20220;-74
2022/03/08 14:44:44;;;;;;;1.03;0.80;;;;;;;;;;4901057;29;20229;-77
2022/03/08 14:47:20;;;;;;;0.87;0.80;;;;;;;;;;4901354;29;20234;-76
2022/03/08 14:49:46;;;;;;;1.83;0.60;;;;;;;;;;4902775;29;20238;-73
2022/03/08 14:52:35;;;;;;;1.30;0.77;;;;;;;;;;4886045;29;20302;-73
2022/03/08 14:55:06;;;;;;;0.57;0.50;;;;;;;;;;4905338;29;20247;-74